Terminal Aerodrome Forecast
Issued by NWS Central Illinois

Home | Current Version | Previous Version | Text Only | Print | Product List | Glossary On
Versions: 1 2 3 4 5 6 7 8 9 10 11 12 13 14 15 16 17 18 19
000
FTUS43 KILX 242000 AAA
TAFPIA
TAF AMD
KPIA 242010Z 2420/2518 17014G20KT P6SM VCSH OVC050
     FM242300 17010KT 4SM -RA VCTS OVC025CB
     FM250100 34010KT 4SM -RA VCTS SCT007CB OVC015
     FM250700 33014G20KT P6SM SCT015
     FM251100 30012KT P6SM SKC=

USA.gov is the U.S. government's official web portal to all federal, state and local government web resources and services.